sensor_id;sensor_type;location;lat;lon;timestamp;P1;durP1;ratioP1;P2;durP2;ratioP2
25249;SDS011;13201;51.148;13.738;2023-12-28T00:00:42;6.05;;;2.70;;
25249;SDS011;13201;51.148;13.738;2023-12-28T00:03:08;6.82;;;2.88;;
25249;SDS011;13201;51.148;13.738;2023-12-28T00:05:33;7.90;;;2.65;;
25249;SDS011;13201;51.148;13.738;2023-12-28T00:07:59;7.07;;;2.47;;
25249;SDS011;13201;51.148;13.738;2023-12-28T00:10:25;4.95;;;2.40;;
25249;SDS011;13201;51.148;13.738;2023-12-28T00:12:52;7.65;;;2.30;;
25249;SDS011;13201;51.148;13.738;2023-12-28T00:15:18;7.73;;;2.53;;
25249;SDS011;13201;51.148;13.738;2023-12-28T00:17:44;5.78;;;2.45;;
25249;SDS011;13201;51.148;13.738;2023-12-28T00:20:09;4.65;;;2.20;;
25249;SDS011;13201;51.148;13.738;2023-12-28T00:22:35;5.07;;;2.07;;
25249;SDS011;13201;51.148;13.738;2023-12-28T00:25:04;6.22;;;2.42;;
25249;SDS011;13201;51.148;13.738;2023-12-28T00:27:30;4.13;;;2.10;;
25249;SDS011;13201;51.148;13.738;2023-12-28T00:29:56;4.97;;;2.00;;
25249;SDS011;13201;51.148;13.738;2023-12-28T00:32:22;4.45;;;2.00;;
25249;SDS011;13201;51.148;13.738;2023-12-28T00:34:47;4.40;;;1.95;;
25249;SDS011;13201;51.148;13.738;2023-12-28T00:37:13;4.32;;;1.90;;
25249;SDS011;13201;51.148;13.738;2023-12-28T00:39:39;4.63;;;1.98;;
25249;SDS011;13201;51.148;13.738;2023-12-28T00:42:05;4.18;;;1.88;;
25249;SDS011;13201;51.148;13.738;2023-12-28T00:44:31;3.30;;;1.60;;
25249;SDS011;13201;51.148;13.738;2023-12-28T00:46:57;3.22;;;1.80;;
25249;SDS011;13201;51.148;13.738;2023-12-28T00:49:23;4.35;;;2.03;;
25249;SDS011;13201;51.148;13.738;2023-12-28T00:51:48;3.58;;;1.80;;
25249;SDS011;13201;51.148;13.738;2023-12-28T00:54:14;4.57;;;2.22;;
25249;SDS011;13201;51.148;13.738;2023-12-28T00:56:39;4.80;;;1.88;;
25249;SDS011;13201;51.148;13.738;2023-12-28T00:59:05;4.45;;;1.95;;
25249;SDS011;13201;51.148;13.738;2023-12-28T01:01:31;3.03;;;1.60;;
25249;SDS011;13201;51.148;13.738;2023-12-28T01:28:06;4.82;;;1.60;;
25249;SDS011;13201;51.148;13.738;2023-12-28T01:30:32;4.77;;;1.80;;
25249;SDS011;13201;51.148;13.738;2023-12-28T01:32:59;4.43;;;1.90;;
25249;SDS011;13201;51.148;13.738;2023-12-28T01:35:24;3.80;;;1.88;;
25249;SDS011;13201;51.148;13.738;2023-12-28T01:37:50;4.90;;;1.60;;
25249;SDS011;13201;51.148;13.738;2023-12-28T01:40:16;3.60;;;1.67;;
25249;SDS011;13201;51.148;13.738;2023-12-28T01:42:42;4.73;;;1.80;;
25249;SDS011;13201;51.148;13.738;2023-12-28T01:45:07;4.03;;;1.90;;
25249;SDS011;13201;51.148;13.738;2023-12-28T01:47:33;4.43;;;1.80;;
25249;SDS011;13201;51.148;13.738;2023-12-28T01:49:59;3.20;;;1.60;;
25249;SDS011;13201;51.148;13.738;2023-12-28T01:52:26;6.55;;;1.70;;
25249;SDS011;13201;51.148;13.738;2023-12-28T01:54:53;2.92;;;1.55;;
25249;SDS011;13201;51.148;13.738;2023-12-28T01:57:19;4.50;;;1.63;;
25249;SDS011;13201;51.148;13.738;2023-12-28T01:59:45;2.57;;;1.00;;
25249;SDS011;13201;51.148;13.738;2023-12-28T02:02:11;2.58;;;1.40;;
25249;SDS011;13201;51.148;13.738;2023-12-28T02:04:37;4.78;;;2.00;;
25249;SDS011;13201;51.148;13.738;2023-12-28T02:07:03;2.90;;;1.73;;
25249;SDS011;13201;51.148;13.738;2023-12-28T02:09:29;3.30;;;1.50;;
25249;SDS011;13201;51.148;13.738;2023-12-28T02:11:54;2.60;;;1.50;;
25249;SDS011;13201;51.148;13.738;2023-12-28T02:14:20;2.60;;;1.30;;
25249;SDS011;13201;51.148;13.738;2023-12-28T02:16:50;3.72;;;1.00;;
25249;SDS011;13201;51.148;13.738;2023-12-28T02:22:25;2.75;;;1.00;;
25249;SDS011;13201;51.148;13.738;2023-12-28T02:27:36;1.48;;;1.10;;
25249;SDS011;13201;51.148;13.738;2023-12-28T02:30:03;1.80;;;1.10;;
25249;SDS011;13201;51.148;13.738;2023-12-28T02:38:14;1.70;;;0.90;;
25249;SDS011;13201;51.148;13.738;2023-12-28T02:40:42;1.48;;;0.80;;
25249;SDS011;13201;51.148;13.738;2023-12-28T02:43:10;2.67;;;0.90;;
25249;SDS011;13201;51.148;13.738;2023-12-28T02:45:37;1.55;;;0.98;;
25249;SDS011;13201;51.148;13.738;2023-12-28T02:48:03;1.33;;;0.90;;
25249;SDS011;13201;51.148;13.738;2023-12-28T02:50:30;1.50;;;0.70;;
25249;SDS011;13201;51.148;13.738;2023-12-28T02:52:56;1.83;;;0.95;;
25249;SDS011;13201;51.148;13.738;2023-12-28T02:55:22;2.42;;;0.60;;
25249;SDS011;13201;51.148;13.738;2023-12-28T02:57:49;2.83;;;0.87;;
25249;SDS011;13201;51.148;13.738;2023-12-28T03:00:15;1.52;;;0.95;;
25249;SDS011;13201;51.148;13.738;2023-12-28T03:02:41;2.70;;;0.98;;
25249;SDS011;13201;51.148;13.738;2023-12-28T03:05:07;1.60;;;1.00;;
25249;SDS011;13201;51.148;13.738;2023-12-28T03:07:34;2.35;;;0.80;;
25249;SDS011;13201;51.148;13.738;2023-12-28T03:10:01;1.48;;;0.80;;
25249;SDS011;13201;51.148;13.738;2023-12-28T03:12:28;3.13;;;1.10;;
25249;SDS011;13201;51.148;13.738;2023-12-28T03:14:54;2.25;;;1.00;;
25249;SDS011;13201;51.148;13.738;2023-12-28T03:17:20;2.35;;;0.90;;
25249;SDS011;13201;51.148;13.738;2023-12-28T03:19:46;1.92;;;0.90;;
25249;SDS011;13201;51.148;13.738;2023-12-28T03:22:11;1.67;;;1.00;;
25249;SDS011;13201;51.148;13.738;2023-12-28T03:24:37;1.08;;;0.80;;
25249;SDS011;13201;51.148;13.738;2023-12-28T03:27:04;1.92;;;0.98;;
25249;SDS011;13201;51.148;13.738;2023-12-28T03:29:30;1.23;;;0.80;;
25249;SDS011;13201;51.148;13.738;2023-12-28T03:31:55;2.70;;;0.95;;
25249;SDS011;13201;51.148;13.738;2023-12-28T03:34:21;1.35;;;0.80;;
25249;SDS011;13201;51.148;13.738;2023-12-28T03:36:47;1.98;;;1.00;;
25249;SDS011;13201;51.148;13.738;2023-12-28T03:39:14;1.73;;;1.02;;
25249;SDS011;13201;51.148;13.738;2023-12-28T03:41:40;1.33;;;0.77;;
25249;SDS011;13201;51.148;13.738;2023-12-28T03:44:05;2.60;;;0.90;;
25249;SDS011;13201;51.148;13.738;2023-12-28T03:46:31;2.22;;;1.00;;
25249;SDS011;13201;51.148;13.738;2023-12-28T03:48:57;1.08;;;0.90;;
25249;SDS011;13201;51.148;13.738;2023-12-28T03:51:22;1.83;;;1.00;;
25249;SDS011;13201;51.148;13.738;2023-12-28T03:53:48;1.90;;;1.00;;
25249;SDS011;13201;51.148;13.738;2023-12-28T03:56:18;2.15;;;1.27;;
25249;SDS011;13201;51.148;13.738;2023-12-28T03:58:48;1.33;;;1.10;;
25249;SDS011;13201;51.148;13.738;2023-12-28T04:01:15;1.73;;;1.17;;
25249;SDS011;13201;51.148;13.738;2023-12-28T04:03:42;1.90;;;1.10;;
25249;SDS011;13201;51.148;13.738;2023-12-28T04:06:08;1.92;;;0.90;;
25249;SDS011;13201;51.148;13.738;2023-12-28T04:08:34;2.72;;;0.90;;
25249;SDS011;13201;51.148;13.738;2023-12-28T04:11:00;1.45;;;1.20;;
25249;SDS011;13201;51.148;13.738;2023-12-28T04:13:25;1.73;;;0.82;;
25249;SDS011;13201;51.148;13.738;2023-12-28T04:15:51;0.73;;;0.70;;
25249;SDS011;13201;51.148;13.738;2023-12-28T04:18:16;1.77;;;1.10;;
25249;SDS011;13201;51.148;13.738;2023-12-28T04:20:42;2.08;;;1.08;;
25249;SDS011;13201;51.148;13.738;2023-12-28T04:23:10;1.88;;;1.25;;
25249;SDS011;13201;51.148;13.738;2023-12-28T04:25:35;2.63;;;1.20;;
25249;SDS011;13201;51.148;13.738;2023-12-28T04:28:02;2.15;;;1.15;;
25249;SDS011;13201;51.148;13.738;2023-12-28T04:30:27;1.83;;;1.30;;
25249;SDS011;13201;51.148;13.738;2023-12-28T04:32:53;3.05;;;1.20;;
25249;SDS011;13201;51.148;13.738;2023-12-28T04:35:19;1.95;;;1.13;;
25249;SDS011;13201;51.148;13.738;2023-12-28T04:37:44;1.27;;;1.00;;
25249;SDS011;13201;51.148;13.738;2023-12-28T04:40:10;1.88;;;1.02;;
25249;SDS011;13201;51.148;13.738;2023-12-28T04:42:36;2.03;;;1.23;;
25249;SDS011;13201;51.148;13.738;2023-12-28T04:45:01;1.67;;;1.00;;
25249;SDS011;13201;51.148;13.738;2023-12-28T04:47:27;2.13;;;1.20;;
25249;SDS011;13201;51.148;13.738;2023-12-28T04:49:53;2.45;;;1.20;;
25249;SDS011;13201;51.148;13.738;2023-12-28T04:52:19;3.08;;;1.30;;
25249;SDS011;13201;51.148;13.738;2023-12-28T04:54:45;3.22;;;1.20;;
25249;SDS011;13201;51.148;13.738;2023-12-28T04:57:10;2.20;;;1.50;;
25249;SDS011;13201;51.148;13.738;2023-12-28T04:59:39;2.28;;;1.30;;
25249;SDS011;13201;51.148;13.738;2023-12-28T05:02:05;2.38;;;1.50;;
25249;SDS011;13201;51.148;13.738;2023-12-28T05:04:31;2.88;;;1.25;;
25249;SDS011;13201;51.148;13.738;2023-12-28T05:06:57;2.30;;;1.30;;
25249;SDS011;13201;51.148;13.738;2023-12-28T05:09:23;3.67;;;1.00;;
25249;SDS011;13201;51.148;13.738;2023-12-28T05:11:48;2.15;;;1.10;;
25249;SDS011;13201;51.148;13.738;2023-12-28T05:14:14;2.58;;;1.30;;
25249;SDS011;13201;51.148;13.738;2023-12-28T05:16:40;2.60;;;1.40;;
25249;SDS011;13201;51.148;13.738;2023-12-28T05:19:07;3.05;;;1.40;;
25249;SDS011;13201;51.148;13.738;2023-12-28T05:21:34;1.90;;;1.20;;
25249;SDS011;13201;51.148;13.738;2023-12-28T05:23:59;2.97;;;1.13;;
25249;SDS011;13201;51.148;13.738;2023-12-28T05:26:25;2.30;;;1.40;;
25249;SDS011;13201;51.148;13.738;2023-12-28T05:28:52;3.28;;;1.10;;
25249;SDS011;13201;51.148;13.738;2023-12-28T05:31:18;2.45;;;1.20;;
25249;SDS011;13201;51.148;13.738;2023-12-28T05:33:43;2.03;;;1.08;;
25249;SDS011;13201;51.148;13.738;2023-12-28T05:36:09;1.85;;;1.20;;
25249;SDS011;13201;51.148;13.738;2023-12-28T05:38:35;1.65;;;1.00;;
25249;SDS011;13201;51.148;13.738;2023-12-28T05:41:00;3.97;;;1.35;;
25249;SDS011;13201;51.148;13.738;2023-12-28T05:43:26;2.85;;;1.13;;
25249;SDS011;13201;51.148;13.738;2023-12-28T05:45:52;4.97;;;1.30;;
25249;SDS011;13201;51.148;13.738;2023-12-28T05:48:17;2.55;;;1.38;;
25249;SDS011;13201;51.148;13.738;2023-12-28T05:50:43;2.65;;;1.27;;
25249;SDS011;13201;51.148;13.738;2023-12-28T05:53:08;2.70;;;1.42;;
25249;SDS011;13201;51.148;13.738;2023-12-28T05:55:42;2.13;;;1.27;;
25249;SDS011;13201;51.148;13.738;2023-12-28T05:58:08;2.08;;;1.25;;
25249;SDS011;13201;51.148;13.738;2023-12-28T06:00:34;1.93;;;1.20;;
25249;SDS011;13201;51.148;13.738;2023-12-28T06:05:27;1.60;;;1.00;;
25249;SDS011;13201;51.148;13.738;2023-12-28T06:07:53;3.35;;;1.40;;
25249;SDS011;13201;51.148;13.738;2023-12-28T06:10:18;4.25;;;1.35;;
25249;SDS011;13201;51.148;13.738;2023-12-28T06:12:44;3.37;;;1.50;;
25249;SDS011;13201;51.148;13.738;2023-12-28T06:15:10;2.28;;;1.15;;
25249;SDS011;13201;51.148;13.738;2023-12-28T06:17:36;2.65;;;1.27;;
25249;SDS011;13201;51.148;13.738;2023-12-28T06:20:01;2.13;;;1.30;;
25249;SDS011;13201;51.148;13.738;2023-12-28T06:22:27;2.47;;;1.30;;
25249;SDS011;13201;51.148;13.738;2023-12-28T06:24:54;2.33;;;1.30;;
25249;SDS011;13201;51.148;13.738;2023-12-28T06:27:20;1.95;;;1.25;;
25249;SDS011;13201;51.148;13.738;2023-12-28T06:29:46;2.70;;;1.37;;
25249;SDS011;13201;51.148;13.738;2023-12-28T06:32:11;2.75;;;1.52;;
25249;SDS011;13201;51.148;13.738;2023-12-28T06:34:37;4.25;;;1.50;;
25249;SDS011;13201;51.148;13.738;2023-12-28T06:37:03;4.78;;;1.40;;
25249;SDS011;13201;51.148;13.738;2023-12-28T06:39:29;2.65;;;1.33;;
25249;SDS011;13201;51.148;13.738;2023-12-28T06:41:54;2.33;;;1.55;;
25249;SDS011;13201;51.148;13.738;2023-12-28T06:44:20;3.83;;;1.45;;
25249;SDS011;13201;51.148;13.738;2023-12-28T06:46:45;2.30;;;1.25;;
25249;SDS011;13201;51.148;13.738;2023-12-28T06:49:11;3.40;;;1.35;;
25249;SDS011;13201;51.148;13.738;2023-12-28T06:51:37;2.25;;;1.33;;
25249;SDS011;13201;51.148;13.738;2023-12-28T06:54:03;2.92;;;1.40;;
25249;SDS011;13201;51.148;13.738;2023-12-28T06:56:29;1.92;;;1.27;;
25249;SDS011;13201;51.148;13.738;2023-12-28T06:58:55;3.38;;;1.30;;
25249;SDS011;13201;51.148;13.738;2023-12-28T07:01:20;3.35;;;1.60;;
25249;SDS011;13201;51.148;13.738;2023-12-28T07:03:46;2.10;;;1.50;;
25249;SDS011;13201;51.148;13.738;2023-12-28T07:06:13;2.10;;;1.52;;
25249;SDS011;13201;51.148;13.738;2023-12-28T07:08:38;2.75;;;1.33;;
25249;SDS011;13201;51.148;13.738;2023-12-28T07:11:04;2.63;;;1.42;;
25249;SDS011;13201;51.148;13.738;2023-12-28T07:13:30;1.80;;;1.45;;
25249;SDS011;13201;51.148;13.738;2023-12-28T07:15:56;4.78;;;1.45;;
25249;SDS011;13201;51.148;13.738;2023-12-28T07:18:22;3.35;;;1.75;;
25249;SDS011;13201;51.148;13.738;2023-12-28T07:20:47;2.60;;;1.30;;
25249;SDS011;13201;51.148;13.738;2023-12-28T07:23:13;2.95;;;1.50;;
25249;SDS011;13201;51.148;13.738;2023-12-28T07:25:39;3.13;;;1.50;;
25249;SDS011;13201;51.148;13.738;2023-12-28T07:28:05;2.45;;;1.63;;
25249;SDS011;13201;51.148;13.738;2023-12-28T07:30:31;4.95;;;1.60;;
25249;SDS011;13201;51.148;13.738;2023-12-28T07:32:57;4.30;;;1.63;;
25249;SDS011;13201;51.148;13.738;2023-12-28T07:35:22;2.25;;;1.52;;
25249;SDS011;13201;51.148;13.738;2023-12-28T07:37:48;2.80;;;1.70;;
25249;SDS011;13201;51.148;13.738;2023-12-28T07:40:14;2.40;;;1.50;;
25249;SDS011;13201;51.148;13.738;2023-12-28T07:42:40;3.95;;;1.70;;
25249;SDS011;13201;51.148;13.738;2023-12-28T07:45:06;3.88;;;1.80;;
25249;SDS011;13201;51.148;13.738;2023-12-28T07:47:32;3.13;;;1.70;;
25249;SDS011;13201;51.148;13.738;2023-12-28T07:49:58;2.17;;;1.47;;
25249;SDS011;13201;51.148;13.738;2023-12-28T07:52:25;4.47;;;2.20;;
25249;SDS011;13201;51.148;13.738;2023-12-28T07:54:51;3.40;;;1.67;;
25249;SDS011;13201;51.148;13.738;2023-12-28T07:57:17;3.80;;;1.70;;
25249;SDS011;13201;51.148;13.738;2023-12-28T07:59:43;2.57;;;1.73;;
25249;SDS011;13201;51.148;13.738;2023-12-28T08:02:09;3.28;;;1.75;;
25249;SDS011;13201;51.148;13.738;2023-12-28T08:04:34;2.55;;;1.80;;
25249;SDS011;13201;51.148;13.738;2023-12-28T08:07:00;3.38;;;1.77;;
25249;SDS011;13201;51.148;13.738;2023-12-28T08:09:26;2.67;;;1.50;;
25249;SDS011;13201;51.148;13.738;2023-12-28T08:11:52;3.60;;;1.60;;
25249;SDS011;13201;51.148;13.738;2023-12-28T08:14:17;3.38;;;1.70;;
25249;SDS011;13201;51.148;13.738;2023-12-28T08:16:44;3.85;;;1.80;;
25249;SDS011;13201;51.148;13.738;2023-12-28T08:19:09;3.28;;;1.70;;
25249;SDS011;13201;51.148;13.738;2023-12-28T08:21:36;2.00;;;1.50;;
25249;SDS011;13201;51.148;13.738;2023-12-28T08:24:02;2.80;;;1.48;;
25249;SDS011;13201;51.148;13.738;2023-12-28T08:26:28;2.95;;;1.70;;
25249;SDS011;13201;51.148;13.738;2023-12-28T08:28:53;2.40;;;1.70;;
25249;SDS011;13201;51.148;13.738;2023-12-28T08:31:19;4.03;;;1.40;;
25249;SDS011;13201;51.148;13.738;2023-12-28T08:33:45;3.03;;;1.80;;
25249;SDS011;13201;51.148;13.738;2023-12-28T08:36:11;3.15;;;1.70;;
25249;SDS011;13201;51.148;13.738;2023-12-28T08:38:37;2.90;;;1.90;;
25249;SDS011;13201;51.148;13.738;2023-12-28T08:41:03;2.42;;;1.52;;
25249;SDS011;13201;51.148;13.738;2023-12-28T08:43:33;3.05;;;1.88;;
25249;SDS011;13201;51.148;13.738;2023-12-28T08:46:01;3.13;;;1.50;;
25249;SDS011;13201;51.148;13.738;2023-12-28T08:48:26;3.35;;;1.80;;
25249;SDS011;13201;51.148;13.738;2023-12-28T08:50:52;4.43;;;1.95;;
25249;SDS011;13201;51.148;13.738;2023-12-28T08:53:18;3.80;;;1.70;;
25249;SDS011;13201;51.148;13.738;2023-12-28T08:55:43;2.58;;;1.75;;
25249;SDS011;13201;51.148;13.738;2023-12-28T08:58:09;3.38;;;1.73;;
25249;SDS011;13201;51.148;13.738;2023-12-28T09:00:35;3.08;;;1.88;;
25249;SDS011;13201;51.148;13.738;2023-12-28T09:03:00;5.45;;;1.80;;
25249;SDS011;13201;51.148;13.738;2023-12-28T09:05:26;2.50;;;1.70;;
25249;SDS011;13201;51.148;13.738;2023-12-28T09:07:52;2.40;;;1.65;;
25249;SDS011;13201;51.148;13.738;2023-12-28T09:10:17;3.72;;;1.73;;
25249;SDS011;13201;51.148;13.738;2023-12-28T09:12:43;5.43;;;1.83;;
25249;SDS011;13201;51.148;13.738;2023-12-28T09:15:09;2.95;;;1.77;;
25249;SDS011;13201;51.148;13.738;2023-12-28T09:17:34;2.15;;;1.50;;
25249;SDS011;13201;51.148;13.738;2023-12-28T09:22:28;3.13;;;1.63;;
25249;SDS011;13201;51.148;13.738;2023-12-28T09:24:54;3.05;;;1.83;;
25249;SDS011;13201;51.148;13.738;2023-12-28T09:27:19;2.55;;;1.40;;
25249;SDS011;13201;51.148;13.738;2023-12-28T09:29:45;6.10;;;1.70;;
25249;SDS011;13201;51.148;13.738;2023-12-28T09:32:11;4.57;;;1.88;;
25249;SDS011;13201;51.148;13.738;2023-12-28T09:34:36;3.42;;;1.80;;
25249;SDS011;13201;51.148;13.738;2023-12-28T09:37:02;4.60;;;1.60;;
25249;SDS011;13201;51.148;13.738;2023-12-28T09:39:28;3.60;;;1.52;;
25249;SDS011;13201;51.148;13.738;2023-12-28T09:42:00;3.25;;;1.40;;
25249;SDS011;13201;51.148;13.738;2023-12-28T09:44:34;3.15;;;1.83;;
25249;SDS011;13201;51.148;13.738;2023-12-28T09:47:03;2.50;;;1.50;;
25249;SDS011;13201;51.148;13.738;2023-12-28T09:49:31;3.28;;;1.60;;
25249;SDS011;13201;51.148;13.738;2023-12-28T09:51:58;2.35;;;1.65;;
25249;SDS011;13201;51.148;13.738;2023-12-28T09:54:25;2.75;;;1.50;;
25249;SDS011;13201;51.148;13.738;2023-12-28T09:56:51;2.55;;;1.50;;
25249;SDS011;13201;51.148;13.738;2023-12-28T09:59:17;3.95;;;1.73;;
25249;SDS011;13201;51.148;13.738;2023-12-28T10:06:36;3.57;;;1.70;;
25249;SDS011;13201;51.148;13.738;2023-12-28T10:09:02;2.45;;;1.63;;
25249;SDS011;13201;51.148;13.738;2023-12-28T10:11:28;3.17;;;1.70;;
25249;SDS011;13201;51.148;13.738;2023-12-28T10:13:54;4.03;;;1.80;;
25249;SDS011;13201;51.148;13.738;2023-12-28T10:16:20;8.65;;;1.60;;
25249;SDS011;13201;51.148;13.738;2023-12-28T10:18:46;2.85;;;1.70;;
25249;SDS011;13201;51.148;13.738;2023-12-28T10:21:11;3.38;;;1.50;;
25249;SDS011;13201;51.148;13.738;2023-12-28T10:23:38;3.67;;;1.73;;
25249;SDS011;13201;51.148;13.738;2023-12-28T10:26:04;5.18;;;1.80;;
25249;SDS011;13201;51.148;13.738;2023-12-28T10:30:57;2.70;;;1.90;;
25249;SDS011;13201;51.148;13.738;2023-12-28T10:33:23;1.80;;;1.35;;
25249;SDS011;13201;51.148;13.738;2023-12-28T10:35:52;3.63;;;1.60;;
25249;SDS011;13201;51.148;13.738;2023-12-28T10:38:19;2.60;;;1.67;;
25249;SDS011;13201;51.148;13.738;2023-12-28T10:40:45;2.67;;;1.50;;
25249;SDS011;13201;51.148;13.738;2023-12-28T10:43:16;3.65;;;1.60;;
25249;SDS011;13201;51.148;13.738;2023-12-28T10:45:47;3.08;;;1.52;;
25249;SDS011;13201;51.148;13.738;2023-12-28T10:48:15;2.72;;;1.58;;
25249;SDS011;13201;51.148;13.738;2023-12-28T10:50:54;3.03;;;1.80;;
25249;SDS011;13201;51.148;13.738;2023-12-28T10:53:30;2.00;;;1.60;;
25249;SDS011;13201;51.148;13.738;2023-12-28T10:58:51;3.10;;;1.73;;
25249;SDS011;13201;51.148;13.738;2023-12-28T11:01:28;2.58;;;1.63;;
25249;SDS011;13201;51.148;13.738;2023-12-28T11:04:02;2.70;;;1.77;;
25249;SDS011;13201;51.148;13.738;2023-12-28T11:06:48;3.17;;;1.60;;
25249;SDS011;13201;51.148;13.738;2023-12-28T11:09:16;2.90;;;1.80;;
25249;SDS011;13201;51.148;13.738;2023-12-28T11:11:43;3.03;;;1.60;;
25249;SDS011;13201;51.148;13.738;2023-12-28T11:14:10;2.85;;;1.60;;
25249;SDS011;13201;51.148;13.738;2023-12-28T11:16:37;3.53;;;1.67;;
25249;SDS011;13201;51.148;13.738;2023-12-28T11:19:05;4.15;;;1.55;;
25249;SDS011;13201;51.148;13.738;2023-12-28T11:21:33;2.25;;;1.60;;
25249;SDS011;13201;51.148;13.738;2023-12-28T11:23:59;3.35;;;1.90;;
25249;SDS011;13201;51.148;13.738;2023-12-28T11:26:26;2.00;;;1.38;;
25249;SDS011;13201;51.148;13.738;2023-12-28T11:29:02;2.97;;;1.92;;
25249;SDS011;13201;51.148;13.738;2023-12-28T11:31:32;4.32;;;1.67;;
25249;SDS011;13201;51.148;13.738;2023-12-28T11:33:59;2.17;;;1.58;;
25249;SDS011;13201;51.148;13.738;2023-12-28T11:36:35;2.42;;;1.60;;
25249;SDS011;13201;51.148;13.738;2023-12-28T11:39:05;2.03;;;1.50;;
25249;SDS011;13201;51.148;13.738;2023-12-28T11:41:32;2.67;;;1.70;;
25249;SDS011;13201;51.148;13.738;2023-12-28T11:44:07;2.97;;;1.83;;
25249;SDS011;13201;51.148;13.738;2023-12-28T11:46:34;4.30;;;1.75;;
25249;SDS011;13201;51.148;13.738;2023-12-28T11:49:04;3.45;;;1.63;;
25249;SDS011;13201;51.148;13.738;2023-12-28T11:51:34;3.92;;;1.58;;
25249;SDS011;13201;51.148;13.738;2023-12-28T11:54:02;3.38;;;1.75;;
25249;SDS011;13201;51.148;13.738;2023-12-28T11:56:29;2.73;;;1.80;;
25249;SDS011;13201;51.148;13.738;2023-12-28T11:58:55;2.42;;;1.60;;
25249;SDS011;13201;51.148;13.738;2023-12-28T12:01:21;5.70;;;1.98;;
25249;SDS011;13201;51.148;13.738;2023-12-28T12:03:47;3.78;;;2.10;;
25249;SDS011;13201;51.148;13.738;2023-12-28T12:06:14;3.38;;;1.85;;
25249;SDS011;13201;51.148;13.738;2023-12-28T12:08:40;5.15;;;1.77;;
25249;SDS011;13201;51.148;13.738;2023-12-28T12:11:06;2.65;;;1.48;;
25249;SDS011;13201;51.148;13.738;2023-12-28T12:13:32;1.85;;;1.20;;
25249;SDS011;13201;51.148;13.738;2023-12-28T12:15:58;2.65;;;1.63;;
25249;SDS011;13201;51.148;13.738;2023-12-28T12:18:24;5.53;;;1.60;;
25249;SDS011;13201;51.148;13.738;2023-12-28T12:23:16;2.00;;;1.20;;
25249;SDS011;13201;51.148;13.738;2023-12-28T12:25:42;3.90;;;1.65;;
25249;SDS011;13201;51.148;13.738;2023-12-28T12:28:10;2.92;;;1.55;;
25249;SDS011;13201;51.148;13.738;2023-12-28T12:30:36;2.95;;;1.50;;
25249;SDS011;13201;51.148;13.738;2023-12-28T12:33:02;2.25;;;1.40;;
25249;SDS011;13201;51.148;13.738;2023-12-28T12:35:28;3.47;;;1.45;;
25249;SDS011;13201;51.148;13.738;2023-12-28T12:37:54;4.43;;;1.58;;
25249;SDS011;13201;51.148;13.738;2023-12-28T12:40:20;3.13;;;1.55;;
25249;SDS011;13201;51.148;13.738;2023-12-28T12:42:55;3.03;;;1.48;;
25249;SDS011;13201;51.148;13.738;2023-12-28T12:45:21;2.67;;;1.50;;
25249;SDS011;13201;51.148;13.738;2023-12-28T12:47:47;1.92;;;1.38;;
25249;SDS011;13201;51.148;13.738;2023-12-28T12:50:13;2.25;;;1.33;;
25249;SDS011;13201;51.148;13.738;2023-12-28T12:52:41;5.18;;;1.80;;
25249;SDS011;13201;51.148;13.738;2023-12-28T12:57:35;4.10;;;1.50;;
25249;SDS011;13201;51.148;13.738;2023-12-28T13:00:02;2.17;;;1.40;;
25249;SDS011;13201;51.148;13.738;2023-12-28T13:02:31;5.32;;;1.73;;
25249;SDS011;13201;51.148;13.738;2023-12-28T13:04:58;1.70;;;1.50;;
25249;SDS011;13201;51.148;13.738;2023-12-28T13:07:24;2.27;;;1.40;;
25249;SDS011;13201;51.148;13.738;2023-12-28T13:09:50;3.38;;;1.48;;
25249;SDS011;13201;51.148;13.738;2023-12-28T13:12:16;2.38;;;1.20;;
25249;SDS011;13201;51.148;13.738;2023-12-28T13:14:42;2.88;;;1.20;;
25249;SDS011;13201;51.148;13.738;2023-12-28T13:17:09;3.55;;;1.50;;
25249;SDS011;13201;51.148;13.738;2023-12-28T13:19:35;2.20;;;1.50;;
25249;SDS011;13201;51.148;13.738;2023-12-28T13:22:01;2.08;;;1.20;;
25249;SDS011;13201;51.148;13.738;2023-12-28T13:24:27;2.03;;;1.17;;
25249;SDS011;13201;51.148;13.738;2023-12-28T13:26:53;2.97;;;1.15;;
25249;SDS011;13201;51.148;13.738;2023-12-28T13:29:18;3.35;;;1.40;;
25249;SDS011;13201;51.148;13.738;2023-12-28T13:31:44;6.70;;;2.22;;
25249;SDS011;13201;51.148;13.738;2023-12-28T13:34:12;3.22;;;1.80;;
25249;SDS011;13201;51.148;13.738;2023-12-28T13:36:38;3.33;;;1.70;;
25249;SDS011;13201;51.148;13.738;2023-12-28T13:39:03;2.88;;;1.88;;
25249;SDS011;13201;51.148;13.738;2023-12-28T13:41:30;5.95;;;2.60;;
25249;SDS011;13201;51.148;13.738;2023-12-28T13:43:56;6.95;;;2.40;;
25249;SDS011;13201;51.148;13.738;2023-12-28T13:46:27;5.68;;;2.88;;
25249;SDS011;13201;51.148;13.738;2023-12-28T13:48:52;5.32;;;2.25;;
25249;SDS011;13201;51.148;13.738;2023-12-28T13:51:18;6.93;;;2.95;;
25249;SDS011;13201;51.148;13.738;2023-12-28T13:53:44;6.28;;;2.67;;
25249;SDS011;13201;51.148;13.738;2023-12-28T13:56:09;5.18;;;2.55;;
25249;SDS011;13201;51.148;13.738;2023-12-28T13:58:35;2.40;;;1.83;;
25249;SDS011;13201;51.148;13.738;2023-12-28T14:01:00;4.63;;;2.10;;
25249;SDS011;13201;51.148;13.738;2023-12-28T14:03:27;5.65;;;2.33;;
25249;SDS011;13201;51.148;13.738;2023-12-28T14:05:53;3.30;;;1.42;;
25249;SDS011;13201;51.148;13.738;2023-12-28T14:08:19;3.03;;;1.38;;
25249;SDS011;13201;51.148;13.738;2023-12-28T14:10:44;2.58;;;1.40;;
25249;SDS011;13201;51.148;13.738;2023-12-28T14:13:10;3.40;;;1.73;;
25249;SDS011;13201;51.148;13.738;2023-12-28T14:15:36;2.40;;;1.40;;
25249;SDS011;13201;51.148;13.738;2023-12-28T14:20:30;3.70;;;1.45;;
25249;SDS011;13201;51.148;13.738;2023-12-28T14:22:56;1.90;;;1.25;;
25249;SDS011;13201;51.148;13.738;2023-12-28T14:25:22;2.10;;;1.20;;
25249;SDS011;13201;51.148;13.738;2023-12-28T14:27:48;1.80;;;1.20;;
25249;SDS011;13201;51.148;13.738;2023-12-28T14:30:14;1.98;;;1.40;;
25249;SDS011;13201;51.148;13.738;2023-12-28T14:32:41;2.08;;;1.40;;
25249;SDS011;13201;51.148;13.738;2023-12-28T14:35:07;1.65;;;1.20;;
25249;SDS011;13201;51.148;13.738;2023-12-28T14:37:33;2.20;;;1.25;;
25249;SDS011;13201;51.148;13.738;2023-12-28T14:39:59;2.08;;;1.50;;
25249;SDS011;13201;51.148;13.738;2023-12-28T14:42:31;1.83;;;1.10;;
25249;SDS011;13201;51.148;13.738;2023-12-28T14:44:59;2.15;;;1.30;;
25249;SDS011;13201;51.148;13.738;2023-12-28T14:49:52;2.33;;;1.40;;
25249;SDS011;13201;51.148;13.738;2023-12-28T14:52:20;3.08;;;1.80;;
25249;SDS011;13201;51.148;13.738;2023-12-28T14:54:49;3.58;;;1.90;;
25249;SDS011;13201;51.148;13.738;2023-12-28T14:57:21;4.63;;;2.40;;
25249;SDS011;13201;51.148;13.738;2023-12-28T14:59:47;6.70;;;2.00;;
25249;SDS011;13201;51.148;13.738;2023-12-28T15:02:13;3.65;;;1.80;;
25249;SDS011;13201;51.148;13.738;2023-12-28T15:04:38;3.90;;;1.90;;
25249;SDS011;13201;51.148;13.738;2023-12-28T15:09:31;4.93;;;2.13;;
25249;SDS011;13201;51.148;13.738;2023-12-28T15:11:57;2.97;;;1.95;;
25249;SDS011;13201;51.148;13.738;2023-12-28T15:14:24;5.53;;;2.25;;
25249;SDS011;13201;51.148;13.738;2023-12-28T15:16:50;4.13;;;1.50;;
25249;SDS011;13201;51.148;13.738;2023-12-28T15:19:16;4.57;;;2.67;;
25249;SDS011;13201;51.148;13.738;2023-12-28T15:21:42;4.93;;;2.80;;
25249;SDS011;13201;51.148;13.738;2023-12-28T15:24:08;3.40;;;2.40;;
25249;SDS011;13201;51.148;13.738;2023-12-28T15:26:34;5.23;;;1.90;;
25249;SDS011;13201;51.148;13.738;2023-12-28T15:29:01;4.50;;;2.38;;
25249;SDS011;13201;51.148;13.738;2023-12-28T15:31:28;5.80;;;2.90;;